Austin, MN

3:40 AM CDT on June 27, 2017 (GMT -0500)
Austin Municipal

Weather History for KAUM - April, 2014

Change the Weather History Date:

Saturday, April 26, 2014

  Actual Average Record
Temperature  
Mean Temperature 48 °F -  
Max Temperature 57 °F 60 °F 77 °F (2001)
Min Temperature 39 °F 38 °F 26 °F (2002)
Degree Days  
Heating Degree Days 17    
Moisture  
Dew Point 34 °F    
Average Humidity 60    
Maximum Humidity 81    
Minimum Humidity 38    
Precipitation  
Precipitation 0.00 in - - ()
Sea Level Pressure  
Sea Level Pressure 29.90 in    
Wind  
Wind Speed 12 mph (East)    
Max Wind Speed 24 mph    
Max Gust Speed 31 mph    
Visibility 10 miles    
Events Rain , Thunderstorm    
Averages and records for this station are not official NWS values.
T = Trace of Precipitation, MM = Missing Value Source: NWS Daily Summary

Daily Weather History Graph

Daily Weather History Graph

Search for Another Location

Airport or City:

Trip Planner

Search our weather history database for the weather conditions in past years. The results will help you decide how hot, cold, wet, or windy it might be!

Date:

Astronomy

Apr. 26, 2014 Rise Set
Actual Time 6:11 AM CDT 8:08 PM CDT
Civil Twilight 5:40 AM CDT 8:39 PM CDT
Nautical Twilight 5:02 AM CDT 9:17 PM CDT
Astronomical Twilight 4:21 AM CDT 9:58 PM CDT
Moon 4:41 AM CDT (4/26) 5:32 PM CDT (4/26)
Length of Visible Light 14h 58m
Length of Day
13h 56m
Waning Crescent, 8% of the Moon is Illuminated
Apr 26
Waning Crescent
Apr 29
New
May 6
First Quarter
May 14
Full
May 21
Last Quarter

Hourly Weather History & Observations

Time (CDT) Temp. Windchill Dew Point Humidity Pressure Visibility Wind Dir Wind Speed Gust Speed Precip Events Conditions
12:15 AM 48.2 °F - 39.2 °F 71% 29.87 in 10.0 mi NE 8.1 mph - N/A   Clear
12:35 AM 48.2 °F - 39.2 °F 71% 29.88 in 10.0 mi NE 5.8 mph - N/A   Clear
12:55 AM 46.4 °F 42.9 °F 39.2 °F 76% 29.88 in 10.0 mi NE 6.9 mph - N/A   Clear
1:15 AM 46.4 °F 42.4 °F 39.2 °F 76% 29.88 in 10.0 mi NE 8.1 mph - N/A   Clear
1:35 AM 46.4 °F 41.5 °F 39.2 °F 76% 29.88 in 10.0 mi NE 10.4 mph - N/A   Clear
1:55 AM 46.4 °F 42.4 °F 39.2 °F 76% 29.88 in 10.0 mi NE 8.1 mph - N/A   Clear
2:15 AM 44.6 °F 40.7 °F 39.2 °F 81% 29.88 in 10.0 mi NE 6.9 mph - N/A   Clear
2:35 AM 44.6 °F 40.2 °F 37.4 °F 76% 29.89 in 10.0 mi ENE 8.1 mph - N/A   Clear
2:55 AM 42.8 °F 39.3 °F 37.4 °F 81% 29.89 in 10.0 mi ENE 5.8 mph 9.2 mph N/A   Clear
3:15 AM 42.8 °F 37.5 °F 35.6 °F 76% 29.89 in 10.0 mi ENE 9.2 mph - N/A   Clear
3:35 AM 42.8 °F 38.6 °F 35.6 °F 76% 29.90 in 10.0 mi ENE 6.9 mph - N/A   Clear
3:55 AM 41.0 °F 36.4 °F 33.8 °F 76% 29.91 in 10.0 mi ENE 6.9 mph - N/A   Clear
4:15 AM 39.2 °F 34.2 °F 33.8 °F 81% 29.91 in 10.0 mi East 6.9 mph - N/A   Clear
4:35 AM 39.2 °F 35.0 °F 33.8 °F 81% 29.92 in 10.0 mi East 5.8 mph - N/A   Clear
4:55 AM 39.2 °F 35.0 °F 33.8 °F 81% 29.92 in 10.0 mi East 5.8 mph - N/A   Clear
5:15 AM 39.2 °F 35.0 °F 33.8 °F 81% 29.92 in 10.0 mi East 5.8 mph - N/A   Clear
5:35 AM 39.2 °F 34.2 °F 33.8 °F 81% 29.93 in 10.0 mi East 6.9 mph - N/A   Clear
5:55 AM 39.2 °F 33.0 °F 33.8 °F 81% 29.93 in 10.0 mi East 9.2 mph - N/A   Clear
6:15 AM 39.2 °F 33.6 °F 32.0 °F 75% 29.94 in 10.0 mi ENE 8.1 mph - N/A   Clear
6:35 AM 39.2 °F 32.5 °F 32.0 °F 75% 29.94 in 10.0 mi ENE 10.4 mph - N/A   Clear
6:55 AM 39.2 °F 32.0 °F 33.8 °F 81% 29.94 in 10.0 mi ENE 11.5 mph - N/A   Clear
7:15 AM 39.2 °F 32.0 °F 33.8 °F 81% 29.95 in 10.0 mi ENE 11.5 mph - N/A   Clear
7:34 AM 39.2 °F 32.0 °F 33.8 °F 81% 29.95 in 10.0 mi ENE 11.5 mph - N/A   Clear
7:55 AM 41.0 °F 33.1 °F 32.0 °F 70% 29.96 in 10.0 mi East 15.0 mph - N/A   Clear
8:15 AM 42.8 °F 35.8 °F 32.0 °F 66% 29.96 in 10.0 mi ENE 13.8 mph 20.7 mph N/A   Clear
8:35 AM 42.8 °F 34.5 °F 32.0 °F 66% 29.96 in 10.0 mi East 18.4 mph 24.2 mph N/A   Clear
9:15 AM 44.6 °F 38.4 °F 32.0 °F 61% 29.96 in 10.0 mi ENE 12.7 mph - N/A   Clear
9:35 AM 46.4 °F 40.1 °F 33.8 °F 62% 29.96 in 10.0 mi East 15.0 mph - N/A   Clear
9:55 AM 46.4 °F 40.1 °F 30.2 °F 53% 29.95 in 10.0 mi East 15.0 mph - N/A   Clear
10:15 AM 48.2 °F - 33.8 °F 58% 29.96 in 10.0 mi ENE 12.7 mph 17.3 mph N/A   Clear
10:35 AM 48.2 °F - 33.8 °F 58% 29.95 in 10.0 mi ENE 16.1 mph 19.6 mph N/A   Clear
10:55 AM 48.2 °F - 32.0 °F 54% 29.96 in 10.0 mi ENE 18.4 mph 23.0 mph N/A   Clear
11:14 AM 48.2 °F - 32.0 °F 54% 29.96 in 10.0 mi East 13.8 mph - N/A   Clear
11:35 AM 50.0 °F - 32.0 °F 50% 29.96 in 10.0 mi East 13.8 mph 21.9 mph N/A   Clear
11:55 AM 51.8 °F - 32.0 °F 47% 29.96 in 10.0 mi East 13.8 mph 17.3 mph N/A   Clear
12:14 PM 51.8 °F - 32.0 °F 47% 29.95 in 10.0 mi East 13.8 mph 19.6 mph N/A   Clear
12:35 PM 51.8 °F - 33.8 °F 50% 29.95 in 10.0 mi East 12.7 mph - N/A   Clear
12:55 PM 53.6 °F - 33.8 °F 47% 29.93 in 10.0 mi East 15.0 mph 20.7 mph N/A   Clear
1:15 PM 53.6 °F - 33.8 °F 47% 29.92 in 10.0 mi East 18.4 mph - N/A   Clear
1:35 PM 53.6 °F - 33.8 °F 47% 29.91 in 10.0 mi East 17.3 mph 24.2 mph N/A   Clear
1:55 PM 55.4 °F - 33.8 °F 44% 29.91 in 10.0 mi East 18.4 mph 21.9 mph N/A   Clear
2:15 PM 55.4 °F - 33.8 °F 44% 29.90 in 10.0 mi East 18.4 mph 23.0 mph N/A   Clear
2:35 PM 57.2 °F - 33.8 °F 41% 29.90 in 10.0 mi East 16.1 mph 23.0 mph N/A   Clear
2:54 PM 57.2 °F - 33.8 °F 41% 29.89 in 10.0 mi ESE 18.4 mph 26.5 mph N/A   Clear
3:15 PM 57.2 °F - 33.8 °F 41% 29.88 in 10.0 mi East 20.7 mph 24.2 mph N/A   Clear
3:35 PM 57.2 °F - 33.8 °F 41% 29.87 in 10.0 mi East 19.6 mph 25.3 mph N/A   Clear
3:55 PM 57.2 °F - 33.8 °F 41% 29.86 in 10.0 mi East 18.4 mph 23.0 mph N/A   Clear
4:15 PM 57.2 °F - 32.0 °F 38% 29.86 in 10.0 mi East 19.6 mph 24.2 mph N/A   Clear
4:35 PM 57.2 °F - 32.0 °F 38% 29.86 in 10.0 mi East 19.6 mph 24.2 mph N/A   Scattered Clouds
4:55 PM 57.2 °F - 33.8 °F 41% 29.85 in 10.0 mi East 19.6 mph 28.8 mph N/A   Mostly Cloudy
5:15 PM 57.2 °F - 32.0 °F 38% 29.83 in 10.0 mi East 21.9 mph 27.6 mph N/A   Mostly Cloudy
5:35 PM 57.2 °F - 33.8 °F 41% 29.83 in 10.0 mi East 20.7 mph 26.5 mph N/A   Scattered Clouds
5:55 PM 55.4 °F - 33.8 °F 44% 29.83 in 10.0 mi East 19.6 mph 27.6 mph N/A   Mostly Cloudy
6:15 PM 55.4 °F - 33.8 °F 44% 29.83 in 7.0 mi East 19.6 mph 23.0 mph N/A Rain Light Rain
6:34 PM 53.6 °F - 37.4 °F 54% 29.84 in 10.0 mi East 15.0 mph 21.9 mph N/A   Overcast
6:55 PM 53.6 °F - 37.4 °F 54% 29.83 in 10.0 mi East 13.8 mph - N/A Thunderstorm Overcast
7:15 PM 53.6 °F - 37.4 °F 54% 29.83 in 10.0 mi East 15.0 mph - N/A   Overcast
7:35 PM 53.6 °F - 37.4 °F 54% 29.83 in 10.0 mi East 13.8 mph - N/A   Overcast
7:55 PM 53.6 °F - 35.6 °F 51% 29.82 in 10.0 mi East 15.0 mph 20.7 mph N/A   Mostly Cloudy
8:15 PM 51.8 °F - 35.6 °F 54% 29.83 in 10.0 mi ENE 13.8 mph 20.7 mph N/A   Mostly Cloudy
8:35 PM 51.8 °F - 35.6 °F 54% 29.84 in 10.0 mi ENE 17.3 mph - N/A   Mostly Cloudy
8:55 PM 51.8 °F - 35.6 °F 54% 29.84 in 10.0 mi ENE 16.1 mph 20.7 mph N/A   Overcast
9:15 PM 50.0 °F - 37.4 °F 62% 29.85 in 10.0 mi East 13.8 mph 26.5 mph N/A   Overcast
9:35 PM 50.0 °F - 35.6 °F 58% 29.86 in 10.0 mi East 19.6 mph 26.5 mph N/A   Overcast
9:55 PM 50.0 °F - 33.8 °F 54% 29.86 in 10.0 mi East 23.0 mph 31.1 mph N/A   Mostly Cloudy
10:15 PM 48.2 °F - 35.6 °F 62% 29.87 in 10.0 mi East 18.4 mph 24.2 mph N/A   Scattered Clouds
10:35 PM 48.2 °F - 33.8 °F 58% 29.87 in 10.0 mi East 24.2 mph 31.1 mph N/A   Overcast
10:55 PM 46.4 °F 38.3 °F 33.8 °F 62% 29.87 in 10.0 mi East 23.0 mph - N/A   Overcast
11:14 PM 46.4 °F 38.7 °F 33.8 °F 62% 29.87 in 10.0 mi East 20.7 mph 26.5 mph N/A   Mostly Cloudy
11:35 PM 46.4 °F 39.0 °F 33.8 °F 62% 29.87 in 10.0 mi East 19.6 mph 29.9 mph N/A   Overcast
11:55 PM 46.4 °F 39.5 °F 33.8 °F 62% 29.87 in 10.0 mi East 17.3 mph - N/A   Overcast